Grande Italia — IBTF — position and weather

sailwx.info

Track history (hours):
 
Tides and Currents Weather Stations Pressure Air Temp Water Temp Dewpoint Dewpoint Depression Visibility Wind Speed Wind Dir Waves Ship Positions

Grande Italia

Last reported at 2015-Nov-10 05:33 UTC. Time now 2016-Feb-13 08:54 UTC.
Position N 50°45' W 005°21'.
Warning: this ship's position is months out of date.

Date/timePositionNaut miles runAvg speedWind from/ knotsBaromVisibWave heightAir tempDewpointWater temp
2015-Nov-10 05:33N 50°45' W 005°21'8910.6
2015-Nov-09 21:10N 51°22' W 003°12'1015.8
2015-Nov-09 20:33N 51°27' W 002°59'10 9.8
2015-Nov-09 19:31N 51°30' W 002°44'0 0.5
2015-Nov-09 18:31N 51°30' W 002°43'0 0.0
2015-Nov-09 17:31N 51°30' W 002°43'0 0.0
2015-Nov-09 16:31N 51°30' W 002°43'0 0.0
2015-Nov-09 15:31N 51°30' W 002°43'0 0.0
2015-Nov-09 14:31N 51°30' W 002°43'0 0.0
2015-Nov-09 13:31N 51°30' W 002°43'0 0.0
2015-Nov-09 12:31N 51°30' W 002°43'0 0.0
2015-Nov-09 11:31N 51°30' W 002°43'0 0.0
2015-Nov-09 10:31N 51°30' W 002°43'0 0.0
2015-Nov-09 09:31N 51°30' W 002°43'0 0.0
2015-Nov-09 08:31N 51°30' W 002°43'0 0.0
2015-Nov-09 07:28N 51°30' W 002°43'0 0.0
2015-Nov-09 06:31N 51°30' W 002°43'0 0.0
2015-Nov-09 05:31N 51°30' W 002°43'0 0.0
2015-Nov-09 04:32N 51°30' W 002°43'1 0.5
2015-Nov-09 03:33N 51°30' W 002°44'7 6.8
2015-Nov-09 02:34N 51°28' W 002°54'101 6.3
2015-Nov-08 10:33N 50°43' W 005°18'1414.4
2015-Nov-08 09:33N 50°33' W 005°34'162 9.9
2015-Nov-07 17:06N 50°21' W 001°20'1111.5
2015-Nov-07 16:10N 50°23' W 001°04'812.1
2015-Nov-07 15:33N 50°25' W 000°52'2814.1
2015-Nov-07 13:33N 50°31' W 000°09'1615.7
2015-Nov-07 12:31N 50°34' E 000°16'1515.1
2015-Nov-07 11:33N 50°38' E 000°38'1515.0
2015-Nov-07 10:33N 50°47' E 000°57'1414.3
2015-Nov-07 09:33N 50°57' E 001°14'1313.6
2015-Nov-07 08:34N 51°06' E 001°30'1514.7
2015-Nov-07 07:33N 51°16' E 001°47'1414.0
2015-Nov-07 06:33N 51°24' E 002°05'1615.8
2015-Nov-07 05:32N 51°23' E 002°31'1714.5
2015-Nov-07 04:22N 51°23' E 002°58'1315.7
2015-Nov-07 03:33N 51°25' E 003°19'1413.6
2015-Nov-07 02:34N 51°26' E 003°40'1211.7
2015-Nov-07 01:34N 51°26' E 003°59'1212.2
2015-Nov-07 00:33N 51°20' E 004°16'5 4.6
2015-Nov-06 23:34N 51°16' E 004°17'1 1.1
2015-Nov-06 22:33N 51°16' E 004°15'1 1.3
2015-Nov-06 21:28N 51°16' E 004°13'0 0.0
2015-Nov-06 20:31N 51°16' E 004°13'0 0.0
2015-Nov-06 19:31N 51°16' E 004°13'0 0.0
2015-Nov-06 18:31N 51°16' E 004°13'0 0.0
2015-Nov-06 17:31N 51°16' E 004°13'0 0.0
2015-Nov-06 16:31N 51°16' E 004°13'0 0.0
2015-Nov-06 15:31N 51°16' E 004°13'0 0.0
2015-Nov-06 14:31N 51°16' E 004°13'0 0.0
2015-Nov-06 13:31N 51°16' E 004°13'0 0.0
2015-Nov-06 12:31N 51°16' E 004°13'0 0.0
2015-Nov-06 11:31N 51°16' E 004°13'0 0.0
2015-Nov-06 10:31N 51°16' E 004°13'0 0.0
2015-Nov-06 09:28N 51°16' E 004°13'0 0.0
2015-Nov-06 08:31N 51°16' E 004°13'0 0.0
2015-Nov-06 07:31N 51°16' E 004°13'0 0.0
2015-Nov-06 06:31N 51°16' E 004°13'0 0.0
2015-Nov-06 05:31N 51°16' E 004°13'0 0.0
2015-Nov-06 04:31N 51°16' E 004°13'0 0.0
2015-Nov-06 03:31N 51°16' E 004°13'0 0.0
2015-Nov-06 02:25N 51°16' E 004°13'0 0.0
2015-Nov-06 01:31N 51°16' E 004°13'0 0.0
2015-Nov-06 00:31N 51°16' E 004°13'0 0.0
2015-Nov-05 23:31N 51°16' E 004°13'0 0.0
2015-Nov-05 22:31N 51°16' E 004°13'0 0.0
2015-Nov-05 21:31N 51°16' E 004°13'0 0.0
2015-Nov-05 20:28N 51°16' E 004°13'0 0.0
2015-Nov-05 19:31N 51°16' E 004°13'0 0.0
2015-Nov-05 18:31N 51°16' E 004°13'0 0.0
2015-Nov-05 17:31N 51°16' E 004°13'0 0.0
2015-Nov-05 16:31N 51°16' E 004°13'0 0.0
2015-Nov-05 15:31N 51°16' E 004°13'0 0.0
2015-Nov-05 14:31N 51°16' E 004°13'0 0.0
2015-Nov-05 13:31N 51°16' E 004°13'0 0.0
2015-Nov-05 12:28N 51°16' E 004°13'0 0.0
2015-Nov-05 11:31N 51°16' E 004°13'0 0.0
2015-Nov-05 10:31N 51°16' E 004°13'0 0.0
2015-Nov-05 09:31N 51°16' E 004°13'0 0.0
2015-Nov-05 08:31N 51°16' E 004°13'0 0.0
2015-Nov-05 07:31N 51°16' E 004°13'0 0.0
2015-Nov-05 06:31N 51°16' E 004°13'0 0.0
2015-Nov-05 05:28N 51°16' E 004°13'0 0.0
2015-Nov-05 04:31N 51°16' E 004°13'0 0.0
2015-Nov-05 03:33N 51°16' E 004°13'3 2.5
2015-Nov-05 02:33N 51°16' E 004°17'1 1.2
2015-Nov-05 01:33N 51°16' E 004°18'7 6.5
2015-Nov-05 00:33N 51°22' E 004°13'8 8.1
2015-Nov-04 23:33N 51°25' E 004°02'8 8.1
2015-Nov-04 22:34N 51°21' E 003°51'8 8.4
2015-Nov-04 21:33N 51°26' E 003°41'2 1.5
2015-Nov-04 20:32N 51°28' E 003°41'0 0.0
2015-Nov-04 19:32N 51°28' E 003°41'0 0.0
2015-Nov-04 18:32N 51°28' E 003°41'0 0.0
2015-Nov-04 17:32N 51°28' E 003°41'0 0.0
2015-Nov-04 16:32N 51°28' E 003°41'0 0.0
2015-Nov-04 15:32N 51°28' E 003°41'0 0.0
2015-Nov-04 14:32N 51°28' E 003°41'0 0.0
2015-Nov-04 13:26N 51°28' E 003°41'1 1.4
2015-Nov-04 12:33N 51°27' E 003°40'1211.6
2015-Nov-04 11:34N 51°24' E 003°22'1413.7
2015-Nov-04 10:31N 51°23' E 002°59'17 5.5
2015-Nov-04 07:22N 51°22' E 002°32'1113.8
2015-Nov-04 06:34N 51°17' E 002°15'1615.6
2015-Nov-04 05:33N 51°10' E 001°53'1615.8
2015-Nov-04 04:33N 50°59' E 001°35'1515.3
2015-Nov-04 03:33N 50°45' E 001°24'4514.6
2015-Nov-04 00:27N 50°24' E 000°22'4412.9
2015-Nov-03 21:04N 50°26' W 000°47'714.7
2015-Nov-03 20:34N 50°33' W 000°52'1212.1
2015-Nov-03 19:34N 50°43' W 001°01'1212.1
2015-Nov-03 18:34N 50°49' W 001°18'7 6.5
2015-Nov-03 17:32N 50°54' W 001°25'0 0.0
2015-Nov-03 16:23N 50°54' W 001°25'0 0.0
2015-Nov-03 15:29N 50°54' W 001°25'0 0.0
2015-Nov-03 14:32N 50°54' W 001°25'0 0.0
2015-Nov-03 12:17N 50°54' W 001°25'0 0.0
2015-Nov-03 11:26N 50°54' W 001°25'0 0.0
2015-Nov-03 10:26N 50°54' W 001°25'0 0.0
2015-Nov-03 09:14N 50°54' W 001°25'0 0.0
2015-Nov-03 04:17N 50°54' W 001°25'0 0.1
2015-Nov-03 01:33N 50°54' W 001°25'7 6.9
2015-Nov-03 00:33N 50°49' W 001°18'1110.7
2015-Nov-02 23:33N 50°44' W 001°03'9 9.2
2015-Nov-02 22:33N 50°35' W 000°57'1615.0
2015-Nov-02 21:31N 50°30' W 001°20'1615.5
2015-Nov-02 20:30N 50°26' W 001°44'1414.7
2015-Nov-02 19:33N 50°23' W 002°06'1513.9
2015-Nov-02 18:30N 50°19' W 002°28'1212.8
2015-Nov-02 17:33N 50°15' W 002°46'1313.2
2015-Nov-02 16:33N 50°12' W 003°05'56513.8
2015-Oct-31 23:31N 41°53' W 009°28'1514.8
2015-Oct-31 22:31N 41°39' W 009°24'1313.7
2015-Oct-31 21:33N 41°26' W 009°21'1514.8
2015-Oct-31 20:33N 41°11' W 009°19'1514.8
2015-Oct-31 19:33N 40°56' W 009°20'1716.1
2015-Oct-31 18:31N 40°40' W 009°24'1515.1
2015-Oct-31 17:31N 40°25' W 009°28'1614.9
2015-Oct-31 16:28N 40°10' W 009°34'1615.7
2015-Oct-31 15:28N 39°55' W 009°40'1615.5
2015-Oct-31 14:28N 39°40' W 009°42'1213.6
2015-Oct-31 13:34N 39°27' W 009°44'1515.0
2015-Oct-31 12:33N 39°12' W 009°46'1514.7
2015-Oct-31 11:34N 38°58' W 009°50'1414.0
2015-Oct-31 10:33N 38°44' W 009°51'1413.6
2015-Oct-31 09:33N 38°30' W 009°48'1313.3
2015-Oct-31 08:33N 38°18' W 009°44'1413.8
2015-Oct-31 07:33N 38°04' W 009°40'1413.8
2015-Oct-31 06:33N 37°51' W 009°36'  
Track history (hours):
 
Tides and Currents Weather Stations Pressure Air Temp Water Temp Dewpoint Dewpoint Depression Visibility Wind Speed Wind Dir Waves Ship Positions

Grande Italia

Last reported at 2015-Nov-10 05:33 UTC. Time now 2016-Feb-13 08:54 UTC.
Position N 50°45' W 005°21'.
Warning: this ship's position is months out of date.

Date/timePositionNaut miles runAvg speedWind from/ knotsBaromVisibWave heightAir tempDewpointWater temp
2015-Nov-10 05:33N 50°45' W 005°21'8910.6
2015-Nov-09 21:10N 51°22' W 003°12'1015.8
2015-Nov-09 20:33N 51°27' W 002°59'10 9.8
2015-Nov-09 19:31N 51°30' W 002°44'0 0.5
2015-Nov-09 18:31N 51°30' W 002°43'0 0.0
2015-Nov-09 17:31N 51°30' W 002°43'0 0.0
2015-Nov-09 16:31N 51°30' W 002°43'0 0.0
2015-Nov-09 15:31N 51°30' W 002°43'0 0.0
2015-Nov-09 14:31N 51°30' W 002°43'0 0.0
2015-Nov-09 13:31N 51°30' W 002°43'0 0.0
2015-Nov-09 12:31N 51°30' W 002°43'0 0.0
2015-Nov-09 11:31N 51°30' W 002°43'0 0.0
2015-Nov-09 10:31N 51°30' W 002°43'0 0.0
2015-Nov-09 09:31N 51°30' W 002°43'0 0.0
2015-Nov-09 08:31N 51°30' W 002°43'0 0.0
2015-Nov-09 07:28N 51°30' W 002°43'0 0.0
2015-Nov-09 06:31N 51°30' W 002°43'0 0.0
2015-Nov-09 05:31N 51°30' W 002°43'0 0.0
2015-Nov-09 04:32N 51°30' W 002°43'1 0.5
2015-Nov-09 03:33N 51°30' W 002°44'7 6.8
2015-Nov-09 02:34N 51°28' W 002°54'101 6.3
2015-Nov-08 10:33N 50°43' W 005°18'1414.4
2015-Nov-08 09:33N 50°33' W 005°34'162 9.9
2015-Nov-07 17:06N 50°21' W 001°20'1111.5
2015-Nov-07 16:10N 50°23' W 001°04'812.1
2015-Nov-07 15:33N 50°25' W 000°52'2814.1
2015-Nov-07 13:33N 50°31' W 000°09'1615.7
2015-Nov-07 12:31N 50°34' E 000°16'1515.1
2015-Nov-07 11:33N 50°38' E 000°38'1515.0
2015-Nov-07 10:33N 50°47' E 000°57'1414.3
2015-Nov-07 09:33N 50°57' E 001°14'1313.6
2015-Nov-07 08:34N 51°06' E 001°30'1514.7
2015-Nov-07 07:33N 51°16' E 001°47'1414.0
2015-Nov-07 06:33N 51°24' E 002°05'1615.8
2015-Nov-07 05:32N 51°23' E 002°31'1714.5
2015-Nov-07 04:22N 51°23' E 002°58'1315.7
2015-Nov-07 03:33N 51°25' E 003°19'1413.6
2015-Nov-07 02:34N 51°26' E 003°40'1211.7
2015-Nov-07 01:34N 51°26' E 003°59'1212.2
2015-Nov-07 00:33N 51°20' E 004°16'5 4.6
2015-Nov-06 23:34N 51°16' E 004°17'1 1.1
2015-Nov-06 22:33N 51°16' E 004°15'1 1.3
2015-Nov-06 21:28N 51°16' E 004°13'0 0.0
2015-Nov-06 20:31N 51°16' E 004°13'0 0.0
2015-Nov-06 19:31N 51°16' E 004°13'0 0.0
2015-Nov-06 18:31N 51°16' E 004°13'0 0.0
2015-Nov-06 17:31N 51°16' E 004°13'0 0.0
2015-Nov-06 16:31N 51°16' E 004°13'0 0.0
2015-Nov-06 15:31N 51°16' E 004°13'0 0.0
2015-Nov-06 14:31N 51°16' E 004°13'0 0.0
2015-Nov-06 13:31N 51°16' E 004°13'0 0.0
2015-Nov-06 12:31N 51°16' E 004°13'0 0.0
2015-Nov-06 11:31N 51°16' E 004°13'0 0.0
2015-Nov-06 10:31N 51°16' E 004°13'0 0.0
2015-Nov-06 09:28N 51°16' E 004°13'0 0.0
2015-Nov-06 08:31N 51°16' E 004°13'0 0.0
2015-Nov-06 07:31N 51°16' E 004°13'0 0.0
2015-Nov-06 06:31N 51°16' E 004°13'0 0.0
2015-Nov-06 05:31N 51°16' E 004°13'0 0.0
2015-Nov-06 04:31N 51°16' E 004°13'0 0.0
2015-Nov-06 03:31N 51°16' E 004°13'0 0.0
2015-Nov-06 02:25N 51°16' E 004°13'0 0.0
2015-Nov-06 01:31N 51°16' E 004°13'0 0.0
2015-Nov-06 00:31N 51°16' E 004°13'0 0.0
2015-Nov-05 23:31N 51°16' E 004°13'0 0.0
2015-Nov-05 22:31N 51°16' E 004°13'0 0.0
2015-Nov-05 21:31N 51°16' E 004°13'0 0.0
2015-Nov-05 20:28N 51°16' E 004°13'0 0.0
2015-Nov-05 19:31N 51°16' E 004°13'0 0.0
2015-Nov-05 18:31N 51°16' E 004°13'0 0.0
2015-Nov-05 17:31N 51°16' E 004°13'0 0.0
2015-Nov-05 16:31N 51°16' E 004°13'0 0.0
2015-Nov-05 15:31N 51°16' E 004°13'0 0.0
2015-Nov-05 14:31N 51°16' E 004°13'0 0.0
2015-Nov-05 13:31N 51°16' E 004°13'0 0.0
2015-Nov-05 12:28N 51°16' E 004°13'0 0.0
2015-Nov-05 11:31N 51°16' E 004°13'0 0.0
2015-Nov-05 10:31N 51°16' E 004°13'0 0.0
2015-Nov-05 09:31N 51°16' E 004°13'0 0.0
2015-Nov-05 08:31N 51°16' E 004°13'0 0.0
2015-Nov-05 07:31N 51°16' E 004°13'0 0.0
2015-Nov-05 06:31N 51°16' E 004°13'0 0.0
2015-Nov-05 05:28N 51°16' E 004°13'0 0.0
2015-Nov-05 04:31N 51°16' E 004°13'0 0.0
2015-Nov-05 03:33N 51°16' E 004°13'3 2.5
2015-Nov-05 02:33N 51°16' E 004°17'1 1.2
2015-Nov-05 01:33N 51°16' E 004°18'7 6.5
2015-Nov-05 00:33N 51°22' E 004°13'8 8.1
2015-Nov-04 23:33N 51°25' E 004°02'8 8.1
2015-Nov-04 22:34N 51°21' E 003°51'8 8.4
2015-Nov-04 21:33N 51°26' E 003°41'2 1.5
2015-Nov-04 20:32N 51°28' E 003°41'0 0.0
2015-Nov-04 19:32N 51°28' E 003°41'0 0.0
2015-Nov-04 18:32N 51°28' E 003°41'0 0.0
2015-Nov-04 17:32N 51°28' E 003°41'0 0.0
2015-Nov-04 16:32N 51°28' E 003°41'0 0.0
2015-Nov-04 15:32N 51°28' E 003°41'0 0.0
2015-Nov-04 14:32N 51°28' E 003°41'0 0.0
2015-Nov-04 13:26N 51°28' E 003°41'1 1.4
2015-Nov-04 12:33N 51°27' E 003°40'1211.6
2015-Nov-04 11:34N 51°24' E 003°22'1413.7
2015-Nov-04 10:31N 51°23' E 002°59'17 5.5
2015-Nov-04 07:22N 51°22' E 002°32'1113.8
2015-Nov-04 06:34N 51°17' E 002°15'1615.6
2015-Nov-04 05:33N 51°10' E 001°53'1615.8
2015-Nov-04 04:33N 50°59' E 001°35'1515.3
2015-Nov-04 03:33N 50°45' E 001°24'4514.6
2015-Nov-04 00:27N 50°24' E 000°22'4412.9
2015-Nov-03 21:04N 50°26' W 000°47'714.7
2015-Nov-03 20:34N 50°33' W 000°52'1212.1
2015-Nov-03 19:34N 50°43' W 001°01'1212.1
2015-Nov-03 18:34N 50°49' W 001°18'7 6.5
2015-Nov-03 17:32N 50°54' W 001°25'0 0.0
2015-Nov-03 16:23N 50°54' W 001°25'0 0.0
2015-Nov-03 15:29N 50°54' W 001°25'0 0.0
2015-Nov-03 14:32N 50°54' W 001°25'0 0.0
2015-Nov-03 12:17N 50°54' W 001°25'0 0.0
2015-Nov-03 11:26N 50°54' W 001°25'0 0.0
2015-Nov-03 10:26N 50°54' W 001°25'0 0.0
2015-Nov-03 09:14N 50°54' W 001°25'0 0.0
2015-Nov-03 04:17N 50°54' W 001°25'0 0.1
2015-Nov-03 01:33N 50°54' W 001°25'7 6.9
2015-Nov-03 00:33N 50°49' W 001°18'1110.7
2015-Nov-02 23:33N 50°44' W 001°03'9 9.2
2015-Nov-02 22:33N 50°35' W 000°57'1615.0
2015-Nov-02 21:31N 50°30' W 001°20'1615.5
2015-Nov-02 20:30N 50°26' W 001°44'1414.7
2015-Nov-02 19:33N 50°23' W 002°06'1513.9
2015-Nov-02 18:30N 50°19' W 002°28'1212.8
2015-Nov-02 17:33N 50°15' W 002°46'1313.2
2015-Nov-02 16:33N 50°12' W 003°05'56513.8
2015-Oct-31 23:31N 41°53' W 009°28'1514.8
2015-Oct-31 22:31N 41°39' W 009°24'1313.7
2015-Oct-31 21:33N 41°26' W 009°21'1514.8
2015-Oct-31 20:33N 41°11' W 009°19'1514.8
2015-Oct-31 19:33N 40°56' W 009°20'1716.1
2015-Oct-31 18:31N 40°40' W 009°24'1515.1
2015-Oct-31 17:31N 40°25' W 009°28'1614.9
2015-Oct-31 16:28N 40°10' W 009°34'1615.7
2015-Oct-31 15:28N 39°55' W 009°40'1615.5
2015-Oct-31 14:28N 39°40' W 009°42'1213.6
2015-Oct-31 13:34N 39°27' W 009°44'1515.0
2015-Oct-31 12:33N 39°12' W 009°46'1514.7
2015-Oct-31 11:34N 38°58' W 009°50'1414.0
2015-Oct-31 10:33N 38°44' W 009°51'1413.6
2015-Oct-31 09:33N 38°30' W 009°48'1313.3
2015-Oct-31 08:33N 38°18' W 009°44'1413.8
2015-Oct-31 07:33N 38°04' W 009°40'1413.8
2015-Oct-31 06:33N 37°51' W 009°36'  

Dump ship's entire track history